sensor_id;sensor_type;location;lat;lon;timestamp;P1;durP1;ratioP1;P2;durP2;ratioP2
75012;SDS011;63567;49.956;20.130;2024-03-02T00:00:10;14.18;;;8.85;;
75012;SDS011;63567;49.956;20.130;2024-03-02T00:02:41;14.05;;;9.48;;
75012;SDS011;63567;49.956;20.130;2024-03-02T00:05:07;12.43;;;9.10;;
75012;SDS011;63567;49.956;20.130;2024-03-02T00:07:35;13.27;;;8.10;;
75012;SDS011;63567;49.956;20.130;2024-03-02T00:10:01;14.07;;;7.83;;
75012;SDS011;63567;49.956;20.130;2024-03-02T00:12:32;12.82;;;7.70;;
75012;SDS011;63567;49.956;20.130;2024-03-02T00:14:58;15.20;;;8.80;;
75012;SDS011;63567;49.956;20.130;2024-03-02T00:17:27;12.68;;;8.15;;
75012;SDS011;63567;49.956;20.130;2024-03-02T00:19:54;12.57;;;7.47;;
75012;SDS011;63567;49.956;20.130;2024-03-02T00:22:19;10.20;;;6.88;;
75012;SDS011;63567;49.956;20.130;2024-03-02T00:24:45;12.00;;;7.77;;
75012;SDS011;63567;49.956;20.130;2024-03-02T00:27:10;12.37;;;7.80;;
75012;SDS011;63567;49.956;20.130;2024-03-02T00:29:39;12.90;;;7.65;;
75012;SDS011;63567;49.956;20.130;2024-03-02T00:32:09;11.35;;;8.45;;
75012;SDS011;63567;49.956;20.130;2024-03-02T00:34:38;13.73;;;7.30;;
75012;SDS011;63567;49.956;20.130;2024-03-02T00:37:03;11.60;;;7.93;;
75012;SDS011;63567;49.956;20.130;2024-03-02T00:39:29;11.97;;;8.07;;
75012;SDS011;63567;49.956;20.130;2024-03-02T00:41:54;11.82;;;8.30;;
75012;SDS011;63567;49.956;20.130;2024-03-02T00:44:19;13.27;;;7.90;;
75012;SDS011;63567;49.956;20.130;2024-03-02T00:46:49;14.30;;;9.27;;
75012;SDS011;63567;49.956;20.130;2024-03-02T00:49:21;13.30;;;8.80;;
75012;SDS011;63567;49.956;20.130;2024-03-02T00:51:48;11.95;;;8.38;;
75012;SDS011;63567;49.956;20.130;2024-03-02T00:54:15;12.60;;;8.18;;
75012;SDS011;63567;49.956;20.130;2024-03-02T00:56:44;14.02;;;9.20;;
75012;SDS011;63567;49.956;20.130;2024-03-02T00:59:10;15.03;;;8.83;;
75012;SDS011;63567;49.956;20.130;2024-03-02T01:01:35;15.90;;;9.38;;
75012;SDS011;63567;49.956;20.130;2024-03-02T01:04:00;12.83;;;9.00;;
75012;SDS011;63567;49.956;20.130;2024-03-02T01:06:26;14.57;;;9.33;;
75012;SDS011;63567;49.956;20.130;2024-03-02T01:08:51;14.07;;;9.43;;
75012;SDS011;63567;49.956;20.130;2024-03-02T01:11:17;13.67;;;8.73;;
75012;SDS011;63567;49.956;20.130;2024-03-02T01:13:43;14.55;;;8.93;;
75012;SDS011;63567;49.956;20.130;2024-03-02T01:16:09;14.32;;;10.07;;
75012;SDS011;63567;49.956;20.130;2024-03-02T01:18:34;14.77;;;8.90;;
75012;SDS011;63567;49.956;20.130;2024-03-02T01:20:59;14.60;;;8.77;;
75012;SDS011;63567;49.956;20.130;2024-03-02T01:23:25;16.07;;;10.20;;
75012;SDS011;63567;49.956;20.130;2024-03-02T01:25:50;13.90;;;9.65;;
75012;SDS011;63567;49.956;20.130;2024-03-02T01:28:16;15.52;;;10.88;;
75012;SDS011;63567;49.956;20.130;2024-03-02T01:30:42;15.80;;;10.15;;
75012;SDS011;63567;49.956;20.130;2024-03-02T01:33:08;15.30;;;10.48;;
75012;SDS011;63567;49.956;20.130;2024-03-02T01:35:33;16.27;;;9.53;;
75012;SDS011;63567;49.956;20.130;2024-03-02T01:37:59;16.33;;;10.00;;
75012;SDS011;63567;49.956;20.130;2024-03-02T01:40:25;14.27;;;8.98;;
75012;SDS011;63567;49.956;20.130;2024-03-02T01:42:51;14.35;;;9.90;;
75012;SDS011;63567;49.956;20.130;2024-03-02T01:45:18;15.05;;;10.02;;
75012;SDS011;63567;49.956;20.130;2024-03-02T01:47:43;15.27;;;9.70;;
75012;SDS011;63567;49.956;20.130;2024-03-02T01:50:09;14.98;;;9.93;;
75012;SDS011;63567;49.956;20.130;2024-03-02T01:52:36;16.20;;;9.98;;
75012;SDS011;63567;49.956;20.130;2024-03-02T01:55:02;17.38;;;11.45;;
75012;SDS011;63567;49.956;20.130;2024-03-02T01:57:28;17.75;;;11.57;;
75012;SDS011;63567;49.956;20.130;2024-03-02T01:59:54;15.25;;;10.07;;
75012;SDS011;63567;49.956;20.130;2024-03-02T02:02:19;15.97;;;10.37;;
75012;SDS011;63567;49.956;20.130;2024-03-02T02:04:45;14.48;;;9.38;;
75012;SDS011;63567;49.956;20.130;2024-03-02T02:07:10;13.85;;;9.40;;
75012;SDS011;63567;49.956;20.130;2024-03-02T02:09:36;17.85;;;9.48;;
75012;SDS011;63567;49.956;20.130;2024-03-02T02:12:01;15.23;;;8.70;;
75012;SDS011;63567;49.956;20.130;2024-03-02T02:14:27;16.27;;;9.88;;
75012;SDS011;63567;49.956;20.130;2024-03-02T02:16:53;15.07;;;9.38;;
75012;SDS011;63567;49.956;20.130;2024-03-02T02:19:18;13.90;;;9.03;;
75012;SDS011;63567;49.956;20.130;2024-03-02T02:21:44;17.23;;;10.23;;
75012;SDS011;63567;49.956;20.130;2024-03-02T02:24:09;14.73;;;9.00;;
75012;SDS011;63567;49.956;20.130;2024-03-02T02:26:35;14.48;;;10.20;;
75012;SDS011;63567;49.956;20.130;2024-03-02T02:29:00;14.73;;;9.57;;
75012;SDS011;63567;49.956;20.130;2024-03-02T02:31:25;14.83;;;8.97;;
75012;SDS011;63567;49.956;20.130;2024-03-02T02:33:51;15.70;;;9.70;;
75012;SDS011;63567;49.956;20.130;2024-03-02T02:36:16;19.33;;;10.67;;
75012;SDS011;63567;49.956;20.130;2024-03-02T02:38:44;17.73;;;10.80;;
75012;SDS011;63567;49.956;20.130;2024-03-02T02:41:11;15.00;;;9.85;;
75012;SDS011;63567;49.956;20.130;2024-03-02T02:43:37;15.10;;;9.87;;
75012;SDS011;63567;49.956;20.130;2024-03-02T02:46:02;14.97;;;10.10;;
75012;SDS011;63567;49.956;20.130;2024-03-02T02:48:27;14.98;;;9.85;;
75012;SDS011;63567;49.956;20.130;2024-03-02T02:50:52;16.03;;;9.47;;
75012;SDS011;63567;49.956;20.130;2024-03-02T02:53:18;17.97;;;9.60;;
75012;SDS011;63567;49.956;20.130;2024-03-02T02:55:43;15.10;;;10.17;;
75012;SDS011;63567;49.956;20.130;2024-03-02T02:58:09;17.93;;;11.10;;
75012;SDS011;63567;49.956;20.130;2024-03-02T03:00:34;17.65;;;12.00;;
75012;SDS011;63567;49.956;20.130;2024-03-02T03:03:01;17.70;;;11.70;;
75012;SDS011;63567;49.956;20.130;2024-03-02T03:05:27;18.90;;;12.32;;
75012;SDS011;63567;49.956;20.130;2024-03-02T03:07:52;21.67;;;12.50;;
75012;SDS011;63567;49.956;20.130;2024-03-02T03:10:18;22.38;;;13.20;;
75012;SDS011;63567;49.956;20.130;2024-03-02T03:12:43;20.75;;;13.43;;
75012;SDS011;63567;49.956;20.130;2024-03-02T03:15:08;21.67;;;13.10;;
75012;SDS011;63567;49.956;20.130;2024-03-02T03:17:35;20.83;;;13.32;;
75012;SDS011;63567;49.956;20.130;2024-03-02T03:20:02;22.27;;;12.82;;
75012;SDS011;63567;49.956;20.130;2024-03-02T03:22:29;23.80;;;14.15;;
75012;SDS011;63567;49.956;20.130;2024-03-02T03:24:54;24.10;;;13.13;;
75012;SDS011;63567;49.956;20.130;2024-03-02T03:27:19;21.20;;;13.60;;
75012;SDS011;63567;49.956;20.130;2024-03-02T03:29:44;19.13;;;11.87;;
75012;SDS011;63567;49.956;20.130;2024-03-02T03:32:10;20.97;;;13.37;;
75012;SDS011;63567;49.956;20.130;2024-03-02T03:34:35;19.43;;;12.67;;
75012;SDS011;63567;49.956;20.130;2024-03-02T03:37:00;20.35;;;12.07;;
75012;SDS011;63567;49.956;20.130;2024-03-02T03:39:26;19.17;;;12.48;;
75012;SDS011;63567;49.956;20.130;2024-03-02T03:41:51;20.63;;;12.45;;
75012;SDS011;63567;49.956;20.130;2024-03-02T03:44:17;20.93;;;12.63;;
75012;SDS011;63567;49.956;20.130;2024-03-02T03:46:42;20.17;;;13.47;;
75012;SDS011;63567;49.956;20.130;2024-03-02T03:49:07;19.80;;;12.03;;
75012;SDS011;63567;49.956;20.130;2024-03-02T03:51:33;20.80;;;13.57;;
75012;SDS011;63567;49.956;20.130;2024-03-02T03:53:58;23.20;;;13.88;;
75012;SDS011;63567;49.956;20.130;2024-03-02T03:56:24;25.00;;;13.23;;
75012;SDS011;63567;49.956;20.130;2024-03-02T03:58:49;23.03;;;14.03;;
75012;SDS011;63567;49.956;20.130;2024-03-02T04:01:14;22.50;;;15.13;;
75012;SDS011;63567;49.956;20.130;2024-03-02T04:03:39;24.03;;;14.83;;
75012;SDS011;63567;49.956;20.130;2024-03-02T04:06:05;22.40;;;13.67;;
75012;SDS011;63567;49.956;20.130;2024-03-02T04:08:30;21.55;;;13.30;;
75012;SDS011;63567;49.956;20.130;2024-03-02T04:10:55;22.80;;;14.17;;
75012;SDS011;63567;49.956;20.130;2024-03-02T04:13:21;20.50;;;13.07;;
75012;SDS011;63567;49.956;20.130;2024-03-02T04:15:47;23.23;;;12.48;;
75012;SDS011;63567;49.956;20.130;2024-03-02T04:18:12;22.30;;;14.10;;
75012;SDS011;63567;49.956;20.130;2024-03-02T04:20:37;21.53;;;13.37;;
75012;SDS011;63567;49.956;20.130;2024-03-02T04:23:02;24.37;;;15.00;;
75012;SDS011;63567;49.956;20.130;2024-03-02T04:25:28;25.75;;;15.20;;
75012;SDS011;63567;49.956;20.130;2024-03-02T04:27:53;24.10;;;13.73;;
75012;SDS011;63567;49.956;20.130;2024-03-02T04:30:18;25.40;;;15.48;;
75012;SDS011;63567;49.956;20.130;2024-03-02T04:32:44;27.97;;;17.47;;
75012;SDS011;63567;49.956;20.130;2024-03-02T04:35:11;27.27;;;16.92;;
75012;SDS011;63567;49.956;20.130;2024-03-02T04:37:37;27.55;;;16.02;;
75012;SDS011;63567;49.956;20.130;2024-03-02T04:40:03;31.45;;;17.38;;
75012;SDS011;63567;49.956;20.130;2024-03-02T04:42:28;32.42;;;17.52;;
75012;SDS011;63567;49.956;20.130;2024-03-02T04:44:54;28.47;;;17.33;;
75012;SDS011;63567;49.956;20.130;2024-03-02T04:47:19;27.60;;;15.07;;
75012;SDS011;63567;49.956;20.130;2024-03-02T04:49:44;26.03;;;15.67;;
75012;SDS011;63567;49.956;20.130;2024-03-02T04:52:10;25.05;;;15.88;;
75012;SDS011;63567;49.956;20.130;2024-03-02T04:54:35;25.20;;;15.45;;
75012;SDS011;63567;49.956;20.130;2024-03-02T04:57:20;24.95;;;15.98;;
75012;SDS011;63567;49.956;20.130;2024-03-02T04:59:45;25.07;;;13.90;;
75012;SDS011;63567;49.956;20.130;2024-03-02T05:02:11;23.87;;;15.50;;
75012;SDS011;63567;49.956;20.130;2024-03-02T05:04:38;26.60;;;15.57;;
75012;SDS011;63567;49.956;20.130;2024-03-02T05:07:04;27.38;;;18.33;;
75012;SDS011;63567;49.956;20.130;2024-03-02T05:09:29;26.40;;;15.68;;
75012;SDS011;63567;49.956;20.130;2024-03-02T05:11:55;32.42;;;18.48;;
75012;SDS011;63567;49.956;20.130;2024-03-02T05:14:39;27.75;;;16.85;;
75012;SDS011;63567;49.956;20.130;2024-03-02T05:17:04;27.80;;;15.17;;
75012;SDS011;63567;49.956;20.130;2024-03-02T05:19:29;25.17;;;16.15;;
75012;SDS011;63567;49.956;20.130;2024-03-02T05:21:55;20.80;;;14.30;;
75012;SDS011;63567;49.956;20.130;2024-03-02T05:24:20;21.00;;;11.37;;
75012;SDS011;63567;49.956;20.130;2024-03-02T05:26:45;17.43;;;10.77;;
75012;SDS011;63567;49.956;20.130;2024-03-02T05:29:11;14.43;;;8.30;;
75012;SDS011;63567;49.956;20.130;2024-03-02T05:31:37;17.50;;;9.48;;
75012;SDS011;63567;49.956;20.130;2024-03-02T05:34:02;17.33;;;10.33;;
75012;SDS011;63567;49.956;20.130;2024-03-02T05:36:27;17.87;;;11.33;;
75012;SDS011;63567;49.956;20.130;2024-03-02T05:38:53;15.20;;;9.77;;
75012;SDS011;63567;49.956;20.130;2024-03-02T05:41:18;15.13;;;9.77;;
75012;SDS011;63567;49.956;20.130;2024-03-02T05:43:43;15.20;;;8.93;;
75012;SDS011;63567;49.956;20.130;2024-03-02T05:46:08;16.00;;;9.10;;
75012;SDS011;63567;49.956;20.130;2024-03-02T05:48:34;15.80;;;8.93;;
75012;SDS011;63567;49.956;20.130;2024-03-02T05:50:59;14.52;;;8.43;;
75012;SDS011;63567;49.956;20.130;2024-03-02T05:53:24;13.87;;;8.93;;
75012;SDS011;63567;49.956;20.130;2024-03-02T05:55:49;17.13;;;9.70;;
75012;SDS011;63567;49.956;20.130;2024-03-02T05:58:20;22.00;;;14.15;;
75012;SDS011;63567;49.956;20.130;2024-03-02T06:01:11;21.83;;;12.55;;
75012;SDS011;63567;49.956;20.130;2024-03-02T06:03:36;23.27;;;15.40;;
75012;SDS011;63567;49.956;20.130;2024-03-02T06:06:01;24.60;;;15.60;;
75012;SDS011;63567;49.956;20.130;2024-03-02T06:08:27;22.35;;;13.98;;
75012;SDS011;63567;49.956;20.130;2024-03-02T06:10:52;23.33;;;13.93;;
75012;SDS011;63567;49.956;20.130;2024-03-02T06:13:17;21.87;;;13.37;;
75012;SDS011;63567;49.956;20.130;2024-03-02T06:15:42;21.03;;;12.10;;
75012;SDS011;63567;49.956;20.130;2024-03-02T06:18:08;17.98;;;11.68;;
75012;SDS011;63567;49.956;20.130;2024-03-02T06:20:33;18.40;;;12.03;;
75012;SDS011;63567;49.956;20.130;2024-03-02T06:22:59;18.57;;;12.37;;
75012;SDS011;63567;49.956;20.130;2024-03-02T06:25:24;19.13;;;10.67;;
75012;SDS011;63567;49.956;20.130;2024-03-02T06:27:49;21.13;;;12.40;;
75012;SDS011;63567;49.956;20.130;2024-03-02T06:30:14;19.87;;;11.10;;
75012;SDS011;63567;49.956;20.130;2024-03-02T06:32:40;18.07;;;11.10;;
75012;SDS011;63567;49.956;20.130;2024-03-02T06:35:05;16.77;;;11.27;;
75012;SDS011;63567;49.956;20.130;2024-03-02T06:37:33;20.65;;;12.32;;
75012;SDS011;63567;49.956;20.130;2024-03-02T06:39:58;20.80;;;12.97;;
75012;SDS011;63567;49.956;20.130;2024-03-02T06:42:24;20.83;;;13.53;;
75012;SDS011;63567;49.956;20.130;2024-03-02T06:44:49;23.40;;;13.20;;
75012;SDS011;63567;49.956;20.130;2024-03-02T06:47:15;23.02;;;13.90;;
75012;SDS011;63567;49.956;20.130;2024-03-02T06:49:41;23.83;;;14.10;;
75012;SDS011;63567;49.956;20.130;2024-03-02T06:52:07;22.02;;;13.52;;
75012;SDS011;63567;49.956;20.130;2024-03-02T06:54:32;23.43;;;15.03;;
75012;SDS011;63567;49.956;20.130;2024-03-02T06:56:57;23.00;;;14.07;;
75012;SDS011;63567;49.956;20.130;2024-03-02T06:59:22;22.57;;;14.57;;
75012;SDS011;63567;49.956;20.130;2024-03-02T07:01:49;23.42;;;14.77;;
75012;SDS011;63567;49.956;20.130;2024-03-02T07:04:14;25.30;;;15.27;;
75012;SDS011;63567;49.956;20.130;2024-03-02T07:06:40;24.93;;;15.40;;
75012;SDS011;63567;49.956;20.130;2024-03-02T07:09:05;25.23;;;15.60;;
75012;SDS011;63567;49.956;20.130;2024-03-02T07:11:30;21.80;;;13.13;;
75012;SDS011;63567;49.956;20.130;2024-03-02T07:13:55;21.63;;;13.80;;
75012;SDS011;63567;49.956;20.130;2024-03-02T07:16:21;23.30;;;14.60;;
75012;SDS011;63567;49.956;20.130;2024-03-02T07:19:05;20.98;;;14.20;;
75012;SDS011;63567;49.956;20.130;2024-03-02T07:21:31;22.77;;;13.82;;
75012;SDS011;63567;49.956;20.130;2024-03-02T07:23:57;24.38;;;15.15;;
75012;SDS011;63567;49.956;20.130;2024-03-02T07:26:23;23.83;;;14.48;;
75012;SDS011;63567;49.956;20.130;2024-03-02T07:28:49;27.03;;;15.93;;
75012;SDS011;63567;49.956;20.130;2024-03-02T07:31:14;21.60;;;15.07;;
75012;SDS011;63567;49.956;20.130;2024-03-02T07:33:40;24.40;;;14.98;;
75012;SDS011;63567;49.956;20.130;2024-03-02T07:36:05;21.03;;;14.30;;
75012;SDS011;63567;49.956;20.130;2024-03-02T07:38:31;22.02;;;14.45;;
75012;SDS011;63567;49.956;20.130;2024-03-02T07:40:58;21.17;;;14.32;;
75012;SDS011;63567;49.956;20.130;2024-03-02T07:43:25;25.35;;;15.40;;
75012;SDS011;63567;49.956;20.130;2024-03-02T07:45:50;29.00;;;18.37;;
75012;SDS011;63567;49.956;20.130;2024-03-02T07:48:15;30.57;;;17.27;;
75012;SDS011;63567;49.956;20.130;2024-03-02T07:50:41;27.70;;;19.50;;
75012;SDS011;63567;49.956;20.130;2024-03-02T07:53:08;30.35;;;17.58;;
75012;SDS011;63567;49.956;20.130;2024-03-02T07:55:33;27.65;;;19.02;;
75012;SDS011;63567;49.956;20.130;2024-03-02T07:57:58;28.08;;;19.40;;
75012;SDS011;63567;49.956;20.130;2024-03-02T08:00:25;26.63;;;17.58;;
75012;SDS011;63567;49.956;20.130;2024-03-02T08:02:50;24.42;;;16.63;;
75012;SDS011;63567;49.956;20.130;2024-03-02T08:05:16;26.08;;;17.70;;
75012;SDS011;63567;49.956;20.130;2024-03-02T08:07:44;25.95;;;16.05;;
75012;SDS011;63567;49.956;20.130;2024-03-02T08:10:10;24.13;;;16.30;;
75012;SDS011;63567;49.956;20.130;2024-03-02T08:12:35;25.30;;;17.02;;
75012;SDS011;63567;49.956;20.130;2024-03-02T08:15:00;23.87;;;16.23;;
75012;SDS011;63567;49.956;20.130;2024-03-02T08:17:26;27.90;;;16.80;;
75012;SDS011;63567;49.956;20.130;2024-03-02T08:19:51;22.47;;;15.00;;
75012;SDS011;63567;49.956;20.130;2024-03-02T08:22:16;23.97;;;13.87;;
75012;SDS011;63567;49.956;20.130;2024-03-02T08:24:42;23.50;;;15.02;;
75012;SDS011;63567;49.956;20.130;2024-03-02T08:27:07;23.23;;;15.90;;
75012;SDS011;63567;49.956;20.130;2024-03-02T08:29:34;24.65;;;16.38;;
75012;SDS011;63567;49.956;20.130;2024-03-02T08:31:59;26.00;;;17.07;;
75012;SDS011;63567;49.956;20.130;2024-03-02T08:34:24;25.10;;;16.63;;
75012;SDS011;63567;49.956;20.130;2024-03-02T08:36:49;27.33;;;17.17;;
75012;SDS011;63567;49.956;20.130;2024-03-02T08:39:15;27.70;;;17.57;;
75012;SDS011;63567;49.956;20.130;2024-03-02T08:41:46;26.07;;;17.57;;
75012;SDS011;63567;49.956;20.130;2024-03-02T08:44:12;25.55;;;18.20;;
75012;SDS011;63567;49.956;20.130;2024-03-02T08:46:41;24.02;;;16.20;;
75012;SDS011;63567;49.956;20.130;2024-03-02T08:49:06;27.10;;;17.27;;
75012;SDS011;63567;49.956;20.130;2024-03-02T08:51:32;23.65;;;16.33;;
75012;SDS011;63567;49.956;20.130;2024-03-02T08:53:57;28.55;;;18.50;;
75012;SDS011;63567;49.956;20.130;2024-03-02T08:56:23;29.58;;;20.20;;
75012;SDS011;63567;49.956;20.130;2024-03-02T08:58:49;35.50;;;22.92;;
75012;SDS011;63567;49.956;20.130;2024-03-02T09:01:15;33.30;;;22.88;;
75012;SDS011;63567;49.956;20.130;2024-03-02T09:03:41;31.50;;;23.30;;
75012;SDS011;63567;49.956;20.130;2024-03-02T09:06:09;30.10;;;21.67;;
75012;SDS011;63567;49.956;20.130;2024-03-02T09:08:35;30.50;;;21.02;;
75012;SDS011;63567;49.956;20.130;2024-03-02T09:11:01;32.53;;;19.20;;
75012;SDS011;63567;49.956;20.130;2024-03-02T09:13:27;32.60;;;20.35;;
75012;SDS011;63567;49.956;20.130;2024-03-02T09:15:52;33.13;;;21.17;;
75012;SDS011;63567;49.956;20.130;2024-03-02T09:18:18;29.60;;;19.27;;
75012;SDS011;63567;49.956;20.130;2024-03-02T09:20:43;27.07;;;18.03;;
75012;SDS011;63567;49.956;20.130;2024-03-02T09:23:08;25.87;;;18.93;;
75012;SDS011;63567;49.956;20.130;2024-03-02T09:25:33;30.33;;;17.97;;
75012;SDS011;63567;49.956;20.130;2024-03-02T09:27:59;29.77;;;18.80;;
75012;SDS011;63567;49.956;20.130;2024-03-02T09:30:24;26.77;;;17.43;;
75012;SDS011;63567;49.956;20.130;2024-03-02T09:32:49;29.20;;;19.30;;
75012;SDS011;63567;49.956;20.130;2024-03-02T09:35:14;29.43;;;20.00;;
75012;SDS011;63567;49.956;20.130;2024-03-02T09:37:40;27.83;;;20.50;;
75012;SDS011;63567;49.956;20.130;2024-03-02T09:40:05;29.07;;;20.10;;
75012;SDS011;63567;49.956;20.130;2024-03-02T09:42:31;34.58;;;22.10;;
75012;SDS011;63567;49.956;20.130;2024-03-02T09:44:57;30.30;;;20.65;;
75012;SDS011;63567;49.956;20.130;2024-03-02T09:47:23;29.60;;;20.35;;
75012;SDS011;63567;49.956;20.130;2024-03-02T09:49:48;28.77;;;17.90;;
75012;SDS011;63567;49.956;20.130;2024-03-02T09:52:14;28.30;;;18.65;;
75012;SDS011;63567;49.956;20.130;2024-03-02T09:54:39;27.80;;;18.55;;
75012;SDS011;63567;49.956;20.130;2024-03-02T09:57:05;27.25;;;17.48;;
75012;SDS011;63567;49.956;20.130;2024-03-02T09:59:30;26.90;;;17.00;;
75012;SDS011;63567;49.956;20.130;2024-03-02T10:01:56;24.83;;;17.57;;
75012;SDS011;63567;49.956;20.130;2024-03-02T10:04:25;27.55;;;18.45;;
75012;SDS011;63567;49.956;20.130;2024-03-02T10:06:51;26.60;;;17.98;;
75012;SDS011;63567;49.956;20.130;2024-03-02T10:09:29;25.88;;;16.65;;
75012;SDS011;63567;49.956;20.130;2024-03-02T10:12:01;26.55;;;17.30;;
75012;SDS011;63567;49.956;20.130;2024-03-02T10:14:29;27.10;;;16.60;;
75012;SDS011;63567;49.956;20.130;2024-03-02T10:16:54;28.00;;;18.38;;
75012;SDS011;63567;49.956;20.130;2024-03-02T10:19:27;26.73;;;18.30;;
75012;SDS011;63567;49.956;20.130;2024-03-02T10:21:57;23.00;;;15.32;;
75012;SDS011;63567;49.956;20.130;2024-03-02T10:24:23;24.23;;;16.10;;
75012;SDS011;63567;49.956;20.130;2024-03-02T10:26:49;27.40;;;17.95;;
75012;SDS011;63567;49.956;20.130;2024-03-02T10:29:15;30.25;;;19.80;;
75012;SDS011;63567;49.956;20.130;2024-03-02T10:31:41;41.42;;;27.05;;
75012;SDS011;63567;49.956;20.130;2024-03-02T10:34:09;39.58;;;24.52;;
75012;SDS011;63567;49.956;20.130;2024-03-02T10:36:36;35.45;;;22.70;;
75012;SDS011;63567;49.956;20.130;2024-03-02T10:39:05;26.75;;;18.23;;
75012;SDS011;63567;49.956;20.130;2024-03-02T10:41:32;23.30;;;16.50;;
75012;SDS011;63567;49.956;20.130;2024-03-02T10:44:02;21.98;;;16.10;;
75012;SDS011;63567;49.956;20.130;2024-03-02T10:46:33;19.33;;;13.85;;
75012;SDS011;63567;49.956;20.130;2024-03-02T10:48:59;21.92;;;14.80;;
75012;SDS011;63567;49.956;20.130;2024-03-02T10:51:26;22.67;;;16.67;;
75012;SDS011;63567;49.956;20.130;2024-03-02T10:56:27;28.53;;;19.40;;
75012;SDS011;63567;49.956;20.130;2024-03-02T10:59:03;28.65;;;19.75;;
75012;SDS011;63567;49.956;20.130;2024-03-02T11:01:39;29.42;;;19.55;;
75012;SDS011;63567;49.956;20.130;2024-03-02T11:04:08;30.58;;;21.25;;
75012;SDS011;63567;49.956;20.130;2024-03-02T11:06:34;32.38;;;21.52;;
75012;SDS011;63567;49.956;20.130;2024-03-02T11:11:32;32.63;;;21.80;;
75012;SDS011;63567;49.956;20.130;2024-03-02T11:14:02;33.47;;;24.83;;
75012;SDS011;63567;49.956;20.130;2024-03-02T11:16:36;34.33;;;24.95;;
75012;SDS011;63567;49.956;20.130;2024-03-02T11:19:13;35.72;;;25.75;;
75012;SDS011;63567;49.956;20.130;2024-03-02T11:21:40;36.30;;;25.73;;
75012;SDS011;63567;49.956;20.130;2024-03-02T11:26:46;35.47;;;26.13;;
75012;SDS011;63567;49.956;20.130;2024-03-02T11:32:06;37.28;;;28.90;;
75012;SDS011;63567;49.956;20.130;2024-03-02T11:34:39;40.08;;;28.73;;
75012;SDS011;63567;49.956;20.130;2024-03-02T11:37:10;38.10;;;29.08;;
75012;SDS011;63567;49.956;20.130;2024-03-02T11:39:35;36.55;;;27.23;;
75012;SDS011;63567;49.956;20.130;2024-03-02T11:42:01;38.25;;;28.08;;
75012;SDS011;63567;49.956;20.130;2024-03-02T11:44:28;37.47;;;27.17;;
75012;SDS011;63567;49.956;20.130;2024-03-02T11:47:02;35.07;;;26.07;;
75012;SDS011;63567;49.956;20.130;2024-03-02T11:52:06;32.85;;;24.20;;
75012;SDS011;63567;49.956;20.130;2024-03-02T11:54:34;31.73;;;24.23;;
75012;SDS011;63567;49.956;20.130;2024-03-02T11:57:01;32.75;;;23.65;;
75012;SDS011;63567;49.956;20.130;2024-03-02T11:59:28;31.67;;;23.70;;
75012;SDS011;63567;49.956;20.130;2024-03-02T12:01:54;30.55;;;23.17;;
75012;SDS011;63567;49.956;20.130;2024-03-02T12:04:21;31.30;;;23.02;;
75012;SDS011;63567;49.956;20.130;2024-03-02T12:06:47;27.88;;;21.83;;
75012;SDS011;63567;49.956;20.130;2024-03-02T12:09:19;30.63;;;21.95;;
75012;SDS011;63567;49.956;20.130;2024-03-02T12:11:45;27.75;;;20.73;;
75012;SDS011;63567;49.956;20.130;2024-03-02T12:14:11;27.17;;;20.20;;
75012;SDS011;63567;49.956;20.130;2024-03-02T12:16:37;27.15;;;20.73;;
75012;SDS011;63567;49.956;20.130;2024-03-02T12:19:04;25.45;;;19.92;;
75012;SDS011;63567;49.956;20.130;2024-03-02T12:21:30;26.00;;;19.83;;
75012;SDS011;63567;49.956;20.130;2024-03-02T12:23:55;27.77;;;20.93;;
75012;SDS011;63567;49.956;20.130;2024-03-02T12:26:20;25.70;;;19.50;;
75012;SDS011;63567;49.956;20.130;2024-03-02T12:28:47;27.73;;;20.20;;
75012;SDS011;63567;49.956;20.130;2024-03-02T12:31:13;25.42;;;20.10;;
75012;SDS011;63567;49.956;20.130;2024-03-02T12:33:38;25.15;;;20.30;;
75012;SDS011;63567;49.956;20.130;2024-03-02T12:36:08;25.52;;;20.08;;
75012;SDS011;63567;49.956;20.130;2024-03-02T12:38:34;23.90;;;19.17;;
75012;SDS011;63567;49.956;20.130;2024-03-02T12:41:00;25.20;;;20.67;;
75012;SDS011;63567;49.956;20.130;2024-03-02T12:43:29;25.27;;;20.47;;
75012;SDS011;63567;49.956;20.130;2024-03-02T12:45:55;24.13;;;18.48;;
75012;SDS011;63567;49.956;20.130;2024-03-02T12:48:21;22.15;;;18.05;;
75012;SDS011;63567;49.956;20.130;2024-03-02T12:50:46;22.35;;;17.65;;
75012;SDS011;63567;49.956;20.130;2024-03-02T12:53:15;19.75;;;16.58;;
75012;SDS011;63567;49.956;20.130;2024-03-02T12:55:41;19.80;;;16.98;;
75012;SDS011;63567;49.956;20.130;2024-03-02T12:58:07;20.25;;;17.10;;
75012;SDS011;63567;49.956;20.130;2024-03-02T13:00:32;20.48;;;15.50;;
75012;SDS011;63567;49.956;20.130;2024-03-02T13:03:00;17.90;;;14.88;;
75012;SDS011;63567;49.956;20.130;2024-03-02T13:05:31;19.75;;;15.55;;
75012;SDS011;63567;49.956;20.130;2024-03-02T13:07:57;18.63;;;15.63;;
75012;SDS011;63567;49.956;20.130;2024-03-02T13:10:24;19.33;;;15.27;;
75012;SDS011;63567;49.956;20.130;2024-03-02T13:12:49;20.20;;;16.17;;
75012;SDS011;63567;49.956;20.130;2024-03-02T13:15:15;18.30;;;15.07;;
75012;SDS011;63567;49.956;20.130;2024-03-02T13:17:40;21.43;;;17.67;;
75012;SDS011;63567;49.956;20.130;2024-03-02T13:20:05;25.63;;;17.83;;
75012;SDS011;63567;49.956;20.130;2024-03-02T13:22:35;25.73;;;19.48;;
75012;SDS011;63567;49.956;20.130;2024-03-02T13:25:00;26.48;;;21.38;;
75012;SDS011;63567;49.956;20.130;2024-03-02T13:27:28;27.75;;;21.70;;
75012;SDS011;63567;49.956;20.130;2024-03-02T13:29:54;29.85;;;20.17;;
75012;SDS011;63567;49.956;20.130;2024-03-02T13:32:19;26.43;;;22.13;;
75012;SDS011;63567;49.956;20.130;2024-03-02T13:37:13;27.07;;;20.80;;
75012;SDS011;63567;49.956;20.130;2024-03-02T13:39:39;26.30;;;22.47;;
75012;SDS011;63567;49.956;20.130;2024-03-02T13:42:10;27.58;;;22.65;;
75012;SDS011;63567;49.956;20.130;2024-03-02T13:44:38;32.40;;;25.83;;
75012;SDS011;63567;49.956;20.130;2024-03-02T13:47:03;29.98;;;22.55;;
75012;SDS011;63567;49.956;20.130;2024-03-02T13:49:29;30.60;;;25.50;;
75012;SDS011;63567;49.956;20.130;2024-03-02T13:52:04;28.60;;;23.83;;
75012;SDS011;63567;49.956;20.130;2024-03-02T13:54:38;29.73;;;25.25;;
75012;SDS011;63567;49.956;20.130;2024-03-02T13:57:04;31.05;;;24.60;;
75012;SDS011;63567;49.956;20.130;2024-03-02T13:59:29;32.10;;;25.52;;
75012;SDS011;63567;49.956;20.130;2024-03-02T14:01:55;28.33;;;21.67;;
75012;SDS011;63567;49.956;20.130;2024-03-02T14:04:20;28.27;;;23.17;;
75012;SDS011;63567;49.956;20.130;2024-03-02T14:06:45;28.87;;;23.40;;
75012;SDS011;63567;49.956;20.130;2024-03-02T14:09:11;29.65;;;24.17;;
75012;SDS011;63567;49.956;20.130;2024-03-02T14:11:36;30.07;;;23.67;;
75012;SDS011;63567;49.956;20.130;2024-03-02T14:14:01;26.97;;;22.60;;
75012;SDS011;63567;49.956;20.130;2024-03-02T14:16:27;30.05;;;23.60;;
75012;SDS011;63567;49.956;20.130;2024-03-02T14:18:52;28.63;;;23.87;;
75012;SDS011;63567;49.956;20.130;2024-03-02T14:21:18;27.80;;;22.43;;